Terminal Aerodrome Forecast
Issued by NWS

Home | Current Version | Previous Version | Text Only | Print | Product List | Glossary On
Versions: 1 2 3 4 5 6 7 8 9 10 11 12 13 14
000
FTUS45 KRIW 232300
TAFLND
TAF
KLND 232320Z 2400/2424 VRB11KT P6SM -TSRA SCT035 BKN050CB
     FM240100 VRB06KT P6SM VCTS SCT035 BKN060CB
     FM240300 30007KT 6SM -SHRA SCT015 OVC030
     FM241000 VRB06KT 3SM -RA BR SCT008 OVC015
     FM241700 VRB06KT 6SM -SHRA SCT015 OVC035=

USA.gov is the U.S. government's official web portal to all federal, state and local government web resources and services.